createdAt,value
2017-08-12T00:01:47.573Z,14.51
2017-08-12T00:04:15.170Z,14.49
2017-08-12T00:06:42.788Z,14.50
2017-08-12T00:09:10.567Z,14.53
2017-08-12T00:11:38.153Z,14.53
2017-08-12T00:14:05.815Z,14.55
2017-08-12T00:16:33.414Z,14.55
2017-08-12T00:19:01.120Z,14.55
2017-08-12T00:21:28.911Z,14.57
2017-08-12T00:23:56.939Z,14.57
2017-08-12T00:26:24.544Z,14.56
2017-08-12T00:28:52.129Z,14.58
2017-08-12T00:31:19.763Z,14.59
2017-08-12T00:33:47.384Z,14.58
2017-08-12T00:36:15.018Z,14.58
2017-08-12T00:38:43.294Z,14.58
2017-08-12T00:41:10.938Z,14.58
2017-08-12T00:43:38.674Z,14.59
2017-08-12T00:46:06.604Z,14.59
2017-08-12T00:48:34.213Z,14.58
2017-08-12T00:51:01.814Z,14.59
2017-08-12T00:53:29.444Z,14.61
2017-08-12T00:55:57.039Z,14.62
2017-08-12T00:58:24.673Z,14.63
2017-08-12T01:00:52.363Z,14.63
2017-08-12T01:03:19.980Z,14.62
2017-08-12T01:05:47.568Z,14.63
2017-08-12T01:08:15.188Z,14.63
2017-08-12T01:10:42.766Z,14.64
2017-08-12T01:13:10.380Z,14.64
2017-08-12T01:15:37.990Z,14.64
2017-08-12T01:18:05.750Z,14.65
2017-08-12T01:20:33.375Z,14.66
2017-08-12T01:23:00.957Z,14.66
2017-08-12T01:25:28.576Z,14.67
2017-08-12T01:27:56.177Z,14.69
2017-08-12T01:30:23.788Z,14.70
2017-08-12T01:32:51.375Z,14.71
2017-08-12T01:35:19.150Z,14.71
2017-08-12T01:37:48.282Z,14.71
2017-08-12T01:40:15.889Z,14.70
2017-08-12T01:42:43.498Z,14.71
2017-08-12T01:45:11.420Z,14.71
2017-08-12T01:47:39.009Z,14.72
2017-08-12T01:50:06.627Z,14.72
2017-08-12T01:52:34.237Z,14.70
2017-08-12T01:55:01.977Z,14.69
2017-08-12T01:57:29.607Z,14.68
2017-08-12T01:59:57.180Z,14.65
2017-08-12T02:02:24.783Z,14.62
2017-08-12T02:04:52.361Z,14.58
2017-08-12T02:07:19.964Z,14.55
2017-08-12T02:09:47.544Z,14.56
2017-08-12T02:12:15.509Z,14.54
2017-08-12T02:14:43.118Z,14.53
2017-08-12T02:17:10.725Z,14.52
2017-08-12T02:19:38.356Z,14.49
2017-08-12T02:22:05.947Z,14.47
2017-08-12T02:24:33.586Z,14.47
2017-08-12T02:27:01.195Z,14.45
2017-08-12T02:29:28.846Z,14.45
2017-08-12T02:31:56.427Z,14.43
2017-08-12T02:34:24.054Z,14.38
2017-08-12T02:36:51.655Z,14.34
2017-08-12T02:39:19.595Z,14.37
2017-08-12T02:41:47.188Z,14.38
2017-08-12T02:44:14.799Z,14.40
2017-08-12T02:46:42.399Z,14.41
2017-08-12T02:49:09.978Z,14.40
2017-08-12T02:51:37.579Z,14.39
2017-08-12T02:54:05.190Z,14.36
2017-08-12T02:56:32.829Z,14.35
2017-08-12T02:59:00.424Z,14.35
2017-08-12T03:01:28.049Z,14.37
2017-08-12T03:03:55.644Z,14.40
2017-08-12T03:06:23.618Z,14.37
2017-08-12T03:08:51.224Z,14.36
2017-08-12T03:11:18.867Z,14.35
2017-08-12T03:13:46.473Z,14.34
2017-08-12T03:16:14.064Z,14.34
2017-08-12T03:18:41.687Z,14.33
2017-08-12T03:21:09.289Z,14.30
2017-08-12T03:23:36.901Z,14.29
2017-08-12T03:26:04.491Z,14.28
2017-08-12T03:28:32.426Z,14.29
2017-08-12T03:31:00.011Z,14.29
2017-08-12T03:33:28.487Z,14.27
2017-08-12T03:35:56.146Z,14.24
2017-08-12T03:38:23.755Z,14.24
2017-08-12T03:40:51.351Z,14.21
2017-08-12T03:43:18.955Z,14.21
2017-08-12T03:45:46.569Z,14.19
2017-08-12T03:48:14.170Z,14.17
2017-08-12T03:50:42.105Z,14.14
2017-08-12T03:53:09.698Z,14.14
2017-08-12T03:55:37.306Z,14.13
2017-08-12T03:58:04.989Z,14.09
2017-08-12T04:00:32.709Z,14.11
2017-08-12T04:03:00.304Z,14.09
2017-08-12T04:05:28.015Z,14.08
2017-08-12T04:07:55.620Z,14.09
2017-08-12T04:10:24.214Z,14.08
2017-08-12T04:12:51.821Z,14.09
2017-08-12T04:15:19.404Z,14.10
2017-08-12T04:17:47.286Z,14.12
2017-08-12T04:20:14.877Z,14.12
2017-08-12T04:22:42.466Z,14.13
2017-08-12T04:25:10.224Z,14.15
2017-08-12T04:27:37.795Z,14.15
2017-08-12T04:30:05.449Z,14.17
2017-08-12T04:32:33.043Z,14.18
2017-08-12T04:35:00.653Z,14.20
2017-08-12T04:37:28.232Z,14.22
2017-08-12T04:39:55.830Z,14.22
2017-08-12T04:42:23.421Z,14.24
2017-08-12T04:44:51.399Z,14.26
2017-08-12T04:47:18.998Z,14.26
2017-08-12T04:49:46.600Z,14.27
2017-08-12T04:52:14.201Z,14.29
2017-08-12T04:54:41.805Z,14.31
2017-08-12T04:57:09.422Z,14.28
2017-08-12T04:59:37.034Z,14.34
2017-08-12T05:02:04.728Z,14.36
2017-08-12T05:04:32.509Z,14.39
2017-08-12T05:07:00.559Z,14.42
2017-08-12T05:09:28.158Z,14.42
2017-08-12T05:11:55.751Z,14.42
2017-08-12T05:14:23.489Z,14.41
2017-08-12T05:16:51.094Z,14.42
2017-08-12T05:19:18.801Z,14.41
2017-08-12T05:21:46.415Z,14.44
2017-08-12T05:24:14.034Z,14.44
2017-08-12T05:26:41.605Z,14.44
2017-08-12T05:29:09.242Z,14.43
2017-08-12T05:31:37.031Z,14.43
2017-08-12T05:34:04.797Z,14.41
2017-08-12T05:36:32.382Z,14.41
2017-08-12T05:39:00.267Z,14.41
2017-08-12T05:41:27.994Z,14.44
2017-08-12T05:43:55.578Z,14.48
2017-08-12T05:46:23.218Z,14.49
2017-08-12T05:48:50.808Z,14.52
2017-08-12T05:51:18.417Z,14.54
2017-08-12T05:53:46.004Z,14.57
2017-08-12T05:56:13.618Z,14.60
2017-08-12T05:58:41.229Z,14.64
2017-08-12T06:01:08.880Z,14.66
2017-08-12T06:03:36.486Z,14.68
2017-08-12T06:06:04.080Z,14.68
2017-08-12T06:08:31.681Z,14.71
2017-08-12T06:10:59.574Z,14.71
2017-08-12T06:13:27.184Z,14.72
2017-08-12T06:15:54.797Z,14.73
2017-08-12T06:18:22.386Z,14.75
2017-08-12T06:20:49.975Z,14.74
2017-08-12T06:23:17.609Z,14.76
2017-08-12T06:25:49.834Z,14.77
2017-08-12T06:28:17.583Z,14.79
2017-08-12T06:30:45.199Z,14.81
2017-08-12T06:33:13.242Z,14.81
2017-08-12T06:35:40.840Z,14.81
2017-08-12T06:38:08.510Z,14.81
2017-08-12T06:40:36.307Z,14.82
2017-08-12T06:43:05.571Z,14.83
2017-08-12T06:45:33.202Z,14.89
2017-08-12T06:48:00.829Z,14.92
2017-08-12T06:50:28.943Z,14.99
2017-08-12T06:52:56.554Z,15.05
2017-08-12T06:55:24.148Z,15.10
2017-08-12T06:57:52.045Z,15.16
2017-08-12T07:00:19.637Z,15.18
2017-08-12T07:02:47.256Z,15.20
2017-08-12T07:05:15.017Z,15.27
2017-08-12T07:07:42.972Z,15.30
2017-08-12T07:10:10.569Z,15.37
2017-08-12T07:12:38.170Z,15.43
2017-08-12T07:15:05.795Z,15.46
2017-08-12T07:17:33.530Z,15.51
2017-08-12T07:20:01.994Z,15.55
2017-08-12T07:22:29.571Z,15.62
2017-08-12T07:24:57.198Z,15.66
2017-08-12T07:27:24.845Z,15.64
2017-08-12T07:29:52.443Z,15.68
2017-08-12T07:32:20.040Z,15.76
2017-08-12T07:34:47.644Z,15.78
2017-08-12T07:37:16.122Z,15.87
2017-08-12T07:39:43.797Z,15.89
2017-08-12T07:42:11.450Z,15.97
2017-08-12T07:44:39.109Z,16.03
2017-08-12T07:47:06.725Z,16.13
2017-08-12T07:49:34.481Z,16.24
2017-08-12T07:52:02.090Z,16.35
2017-08-12T07:54:29.729Z,16.54
2017-08-12T07:56:57.339Z,16.69
2017-08-12T07:59:24.957Z,16.80
2017-08-12T08:01:52.530Z,16.81
2017-08-12T08:04:20.272Z,16.81
2017-08-12T08:06:47.858Z,16.88
2017-08-12T08:09:15.808Z,16.96
2017-08-12T08:11:43.383Z,17.03
2017-08-12T08:14:11.024Z,17.11
2017-08-12T08:16:39.829Z,17.20
2017-08-12T08:19:07.438Z,17.20
2017-08-12T08:21:35.079Z,17.28
2017-08-12T08:24:02.683Z,17.40
2017-08-12T08:26:30.306Z,17.41
2017-08-12T08:28:57.899Z,17.45
2017-08-12T08:31:25.863Z,17.47
2017-08-12T08:33:53.456Z,17.53
2017-08-12T08:36:21.067Z,17.58
2017-08-12T08:38:48.678Z,17.64
2017-08-12T08:41:16.271Z,17.73
2017-08-12T08:43:43.897Z,17.66
2017-08-12T08:46:11.492Z,17.76
2017-08-12T08:48:39.122Z,17.90
2017-08-12T08:51:06.716Z,18.04
2017-08-12T08:53:34.354Z,18.11
2017-08-12T08:56:01.965Z,17.99
2017-08-12T08:58:29.928Z,17.84
2017-08-12T09:00:57.517Z,17.69
2017-08-12T09:03:25.105Z,17.53
2017-08-12T09:05:52.715Z,17.50
2017-08-12T09:08:20.316Z,17.40
2017-08-12T09:10:47.922Z,17.32
2017-08-12T09:13:15.653Z,17.32
2017-08-12T09:15:43.255Z,17.32
2017-08-12T09:18:10.868Z,17.29
2017-08-12T09:20:38.533Z,17.28
2017-08-12T09:23:06.162Z,17.23
2017-08-12T09:25:33.954Z,17.18
2017-08-12T09:28:01.581Z,17.16
2017-08-12T09:30:29.200Z,17.15
2017-08-12T09:32:56.917Z,17.11
2017-08-12T09:35:24.532Z,17.05
2017-08-12T09:37:52.148Z,17.06
2017-08-12T09:40:19.754Z,17.07
2017-08-12T09:42:47.359Z,16.98
2017-08-12T09:45:14.968Z,16.91
2017-08-12T09:47:42.686Z,16.83
2017-08-12T09:50:10.291Z,16.85
2017-08-12T09:52:37.919Z,16.91
2017-08-12T09:55:05.579Z,16.94
2017-08-12T09:57:33.195Z,17.00
2017-08-12T10:00:00.812Z,17.07
2017-08-12T10:02:28.405Z,17.07
2017-08-12T10:04:55.993Z,17.04
2017-08-12T10:07:23.620Z,17.08
2017-08-12T10:09:51.225Z,17.24
2017-08-12T10:12:18.853Z,17.39
2017-08-12T10:14:46.456Z,17.53
2017-08-12T10:17:14.065Z,17.63
2017-08-12T10:19:41.716Z,17.75
2017-08-12T10:22:09.770Z,17.83
2017-08-12T10:24:37.389Z,17.96
2017-08-12T10:27:05.023Z,18.16
2017-08-12T10:29:32.634Z,18.34
2017-08-12T10:32:00.250Z,18.47
2017-08-12T10:34:27.870Z,18.46
2017-08-12T10:36:55.459Z,18.38
2017-08-12T10:39:23.058Z,18.36
2017-08-12T10:41:50.650Z,18.43
2017-08-12T10:44:19.175Z,18.55
2017-08-12T10:46:46.779Z,18.53
2017-08-12T10:49:14.386Z,18.54
2017-08-12T10:51:42.003Z,18.58
2017-08-12T10:54:09.605Z,18.61
2017-08-12T10:56:37.221Z,18.62
2017-08-12T10:59:04.817Z,18.62
2017-08-12T11:01:32.419Z,18.52
2017-08-12T11:04:00.075Z,18.40
2017-08-12T11:06:27.685Z,18.35
2017-08-12T11:08:55.267Z,18.27
2017-08-12T11:11:22.859Z,18.35
2017-08-12T11:13:50.472Z,18.61
2017-08-12T11:16:18.089Z,18.72
2017-08-12T11:18:45.702Z,18.88
2017-08-12T11:21:13.343Z,19.00
2017-08-12T11:23:41.061Z,18.97
2017-08-12T11:26:08.695Z,18.99
2017-08-12T11:28:36.628Z,19.05
2017-08-12T11:31:04.301Z,19.18
2017-08-12T11:33:31.913Z,19.39
2017-08-12T11:35:59.522Z,19.61
2017-08-12T11:38:27.121Z,19.81
2017-08-12T11:40:54.796Z,19.91
2017-08-12T11:43:22.398Z,19.86
2017-08-12T11:45:50.013Z,19.81
2017-08-12T11:48:17.629Z,19.74
2017-08-12T11:50:45.753Z,19.71
2017-08-12T11:53:14.675Z,19.79
2017-08-12T11:55:43.398Z,19.88
2017-08-12T11:58:13.238Z,19.97
2017-08-12T12:03:08.748Z,20.18
2017-08-12T12:05:36.358Z,20.30
2017-08-12T12:08:04.160Z,20.21
2017-08-12T12:10:31.822Z,20.10
2017-08-12T12:12:59.783Z,20.03
2017-08-12T12:15:28.447Z,20.05
2017-08-12T12:17:56.178Z,20.17
2017-08-12T12:20:23.795Z,20.29
2017-08-12T12:22:51.398Z,20.43
2017-08-12T12:25:19.026Z,20.40
2017-08-12T12:27:46.733Z,20.37
2017-08-12T12:30:14.329Z,20.51
2017-08-12T12:32:41.944Z,20.55
2017-08-12T12:35:09.543Z,20.50
2017-08-12T12:37:37.136Z,20.38
2017-08-12T12:40:04.737Z,20.37
2017-08-12T12:42:32.344Z,20.38
2017-08-12T12:45:00.008Z,20.60
2017-08-12T12:47:27.623Z,20.77
2017-08-12T12:49:56.891Z,20.76
2017-08-12T12:52:24.500Z,20.58
2017-08-12T12:54:52.096Z,20.59
2017-08-12T12:57:19.747Z,20.51
2017-08-12T12:59:48.525Z,20.41
2017-08-12T13:02:16.224Z,20.25
2017-08-12T13:04:43.821Z,20.20
2017-08-12T13:07:11.412Z,20.14
2017-08-12T13:09:39.593Z,20.24
2017-08-12T13:12:07.211Z,20.41
2017-08-12T13:14:34.848Z,20.52
2017-08-12T13:17:02.450Z,20.60
2017-08-12T13:19:30.612Z,20.56
2017-08-12T13:21:58.227Z,20.47
2017-08-12T13:24:26.144Z,20.40
2017-08-12T13:26:54.913Z,20.46
2017-08-12T13:29:23.206Z,20.56
2017-08-12T13:31:51.659Z,20.61
2017-08-12T13:34:19.284Z,20.69
2017-08-12T13:36:46.874Z,20.89
2017-08-12T13:39:14.538Z,20.78
2017-08-12T13:41:42.241Z,20.60
2017-08-12T13:44:09.856Z,20.42
2017-08-12T13:46:37.477Z,20.26
2017-08-12T13:49:05.401Z,20.16
2017-08-12T13:51:34.478Z,20.15
2017-08-12T13:54:02.083Z,20.16
2017-08-12T13:56:29.688Z,20.13
2017-08-12T13:58:57.669Z,20.03
2017-08-12T14:01:25.286Z,20.19
2017-08-12T14:03:52.892Z,20.35
2017-08-12T14:06:21.005Z,20.33
2017-08-12T14:08:48.593Z,20.55
2017-08-12T14:11:16.224Z,20.51
2017-08-12T14:13:44.836Z,20.35
2017-08-12T14:16:12.479Z,20.31
2017-08-12T14:18:40.088Z,20.33
2017-08-12T14:21:08.666Z,20.49
2017-08-12T14:23:36.245Z,20.46
2017-08-12T14:26:03.889Z,20.31
2017-08-12T14:28:31.521Z,20.16
2017-08-12T14:31:02.069Z,20.01
2017-08-12T14:33:29.765Z,19.87
2017-08-12T14:35:57.426Z,19.70
2017-08-12T14:38:25.090Z,19.58
2017-08-12T14:40:53.013Z,19.74
2017-08-12T14:43:20.587Z,20.16
2017-08-12T14:45:48.343Z,20.40
2017-08-12T14:48:15.968Z,20.90
2017-08-12T14:50:43.616Z,21.20
2017-08-12T14:53:11.282Z,21.30
2017-08-12T14:55:39.482Z,21.26
2017-08-12T14:58:07.424Z,21.05
2017-08-12T15:00:35.018Z,20.83
2017-08-12T15:03:02.634Z,20.66
2017-08-12T15:05:30.251Z,20.48
2017-08-12T15:07:57.822Z,20.43
2017-08-12T15:10:25.424Z,20.27
2017-08-12T15:12:53.050Z,20.17
2017-08-12T15:15:21.005Z,20.06
2017-08-12T15:17:48.598Z,19.95
2017-08-12T15:20:16.388Z,19.85
2017-08-12T15:22:43.983Z,19.80
2017-08-12T15:25:11.789Z,19.68
2017-08-12T15:27:39.413Z,19.61
2017-08-12T15:30:07.002Z,19.49
2017-08-12T15:32:34.979Z,19.46
2017-08-12T15:35:02.571Z,19.45
2017-08-12T15:37:30.214Z,19.42
2017-08-12T15:39:57.826Z,19.36
2017-08-12T15:42:25.524Z,19.32
2017-08-12T15:44:53.264Z,19.26
2017-08-12T15:47:20.823Z,19.22
2017-08-12T15:49:48.794Z,19.16
2017-08-12T15:52:16.371Z,19.08
2017-08-12T15:54:43.971Z,19.00
2017-08-12T15:57:11.603Z,18.97
2017-08-12T15:59:39.204Z,18.99
2017-08-12T16:02:06.837Z,19.06
2017-08-12T16:04:34.482Z,19.18
2017-08-12T16:07:02.510Z,19.28
2017-08-12T16:09:30.108Z,19.34
2017-08-12T16:11:57.695Z,19.32
2017-08-12T16:14:25.306Z,19.29
2017-08-12T16:16:56.138Z,19.25
2017-08-12T16:19:23.868Z,19.20
2017-08-12T16:21:51.549Z,19.16
2017-08-12T16:24:19.551Z,19.14
2017-08-12T16:26:47.213Z,19.10
2017-08-12T16:29:14.821Z,19.08
2017-08-12T16:31:42.414Z,19.08
2017-08-12T16:34:10.005Z,19.04
2017-08-12T16:36:37.630Z,19.02
2017-08-12T16:39:05.436Z,19.01
2017-08-12T16:41:33.231Z,18.99
2017-08-12T16:44:00.838Z,18.98
2017-08-12T16:46:28.592Z,18.99
2017-08-12T16:48:56.225Z,18.97
2017-08-12T16:51:23.825Z,18.94
2017-08-12T16:53:51.812Z,18.91
2017-08-12T16:56:19.594Z,18.91
2017-08-12T16:58:47.191Z,18.94
2017-08-12T17:01:14.838Z,18.96
2017-08-12T17:03:42.445Z,18.95
2017-08-12T17:06:10.324Z,18.94
2017-08-12T17:08:37.910Z,18.94
2017-08-12T17:11:05.536Z,18.93
2017-08-12T17:13:33.167Z,18.93
2017-08-12T17:16:00.755Z,18.89
2017-08-12T17:18:28.389Z,18.86
2017-08-12T17:20:56.152Z,18.86
2017-08-12T17:23:24.138Z,18.82
2017-08-12T17:25:51.867Z,18.78
2017-08-12T17:28:19.481Z,18.73
2017-08-12T17:30:47.106Z,18.70
2017-08-12T17:33:14.665Z,18.67
2017-08-12T17:35:44.543Z,18.64
2017-08-12T17:38:13.578Z,18.64
2017-08-12T17:40:41.185Z,18.67
2017-08-12T17:43:08.833Z,18.69
2017-08-12T17:45:36.475Z,18.70
2017-08-12T17:48:04.105Z,18.69
2017-08-12T17:50:31.686Z,18.69
2017-08-12T17:53:00.049Z,18.65
2017-08-12T17:55:29.268Z,18.61
2017-08-12T17:57:58.565Z,18.58
2017-08-12T18:00:26.181Z,18.53
2017-08-12T18:02:54.246Z,18.50
2017-08-12T18:05:21.900Z,18.41
2017-08-12T18:07:52.042Z,18.33
2017-08-12T18:10:22.259Z,18.27
2017-08-12T18:12:49.883Z,18.23
2017-08-12T18:15:19.515Z,18.19
2017-08-12T18:17:47.340Z,18.12
2017-08-12T18:20:16.997Z,18.06
2017-08-12T18:22:44.697Z,18.00
2017-08-12T18:25:13.386Z,17.96
2017-08-12T18:27:41.131Z,17.91
2017-08-12T18:30:08.742Z,17.86
2017-08-12T18:32:36.390Z,17.78
2017-08-12T18:35:04.161Z,17.72
2017-08-12T18:37:31.803Z,17.66
2017-08-12T18:39:59.548Z,17.60
2017-08-12T18:42:27.196Z,17.55
2017-08-12T18:44:54.783Z,17.47
2017-08-12T18:47:25.685Z,17.44
2017-08-12T18:49:53.332Z,17.41
2017-08-12T18:52:20.917Z,17.36
2017-08-12T18:54:48.730Z,17.37
2017-08-12T18:57:17.629Z,17.34
2017-08-12T18:59:45.305Z,17.30
2017-08-12T19:02:12.933Z,17.24
2017-08-12T19:04:40.549Z,17.18
2017-08-12T19:07:08.120Z,17.15
2017-08-12T19:09:36.316Z,17.12
2017-08-12T19:12:04.705Z,17.08
2017-08-12T19:14:32.305Z,17.04
2017-08-12T19:16:59.940Z,17.00
2017-08-12T19:19:29.257Z,16.95
2017-08-12T19:21:57.019Z,16.93
2017-08-12T19:24:24.630Z,16.89
2017-08-12T19:26:52.264Z,16.87
2017-08-12T19:29:21.107Z,16.85
2017-08-12T19:31:48.852Z,16.83
2017-08-12T19:34:16.483Z,16.82
2017-08-12T19:36:44.124Z,16.79
2017-08-12T19:39:11.752Z,16.78
2017-08-12T19:41:39.808Z,16.75
2017-08-12T19:44:07.424Z,16.73
2017-08-12T19:46:36.563Z,16.70
2017-08-12T19:49:04.514Z,16.65
2017-08-12T19:51:34.568Z,16.63
2017-08-12T19:54:02.257Z,16.62
2017-08-12T19:56:29.924Z,16.61
2017-08-12T19:59:00.294Z,16.59
2017-08-12T20:01:28.873Z,16.56
2017-08-12T20:03:57.189Z,16.53
2017-08-12T20:06:26.034Z,16.50
2017-08-12T20:08:54.873Z,16.47
2017-08-12T20:11:24.365Z,16.44
2017-08-12T20:13:52.295Z,16.39
2017-08-12T20:16:19.906Z,16.37
2017-08-12T20:18:47.535Z,16.34
2017-08-12T20:21:19.623Z,16.32
2017-08-12T20:23:47.545Z,16.30
2017-08-12T20:26:16.515Z,16.28
2017-08-12T20:28:45.331Z,16.25
2017-08-12T20:31:14.504Z,16.22
2017-08-12T20:33:42.572Z,16.19
2017-08-12T20:36:10.854Z,16.15
2017-08-12T20:38:42.239Z,16.14
2017-08-12T20:41:09.976Z,16.12
2017-08-12T20:43:39.643Z,16.09
2017-08-12T20:46:08.670Z,16.05
2017-08-12T20:48:37.955Z,16.01
2017-08-12T20:51:05.935Z,15.98
2017-08-12T20:53:33.541Z,15.93
2017-08-12T20:56:01.289Z,15.90
2017-08-12T20:58:29.940Z,15.88
2017-08-12T21:00:57.567Z,15.85
2017-08-12T21:03:25.226Z,15.79
2017-08-12T21:05:52.817Z,15.77
2017-08-12T21:08:21.789Z,15.75
2017-08-12T21:10:49.424Z,15.73
2017-08-12T21:13:17.121Z,15.73
2017-08-12T21:15:44.754Z,15.73
2017-08-12T21:18:17.701Z,15.74
2017-08-12T21:20:45.301Z,15.74
2017-08-12T21:23:12.874Z,15.74
2017-08-12T21:25:40.533Z,15.74
2017-08-12T21:28:08.144Z,15.74
2017-08-12T21:30:35.754Z,15.76
2017-08-12T21:33:03.475Z,15.77
2017-08-12T21:35:31.079Z,15.80
2017-08-12T21:38:00.427Z,15.81
2017-08-12T21:40:28.127Z,15.82
2017-08-12T21:42:55.784Z,15.82
2017-08-12T21:45:23.708Z,15.80
2017-08-12T21:47:51.315Z,15.82
2017-08-12T21:50:20.040Z,15.83
2017-08-12T21:52:47.708Z,15.83
2017-08-12T21:55:16.329Z,15.85
2017-08-12T21:57:43.954Z,15.89
2017-08-12T22:00:11.642Z,15.90
2017-08-12T22:02:39.229Z,15.91
2017-08-12T22:05:06.918Z,15.92
2017-08-12T22:07:34.530Z,15.93
2017-08-12T22:10:02.118Z,15.94
2017-08-12T22:12:29.980Z,15.96
2017-08-12T22:14:57.547Z,15.93
2017-08-12T22:17:25.128Z,15.96
2017-08-12T22:19:52.753Z,15.97
2017-08-12T22:22:20.342Z,15.95
2017-08-12T22:24:47.952Z,15.94
2017-08-12T22:27:15.537Z,15.96
2017-08-12T22:29:43.176Z,15.97
2017-08-12T22:32:10.743Z,15.98
2017-08-12T22:34:38.334Z,15.99
2017-08-12T22:37:05.904Z,16.00
2017-08-12T22:39:33.874Z,15.99
2017-08-12T22:42:01.515Z,15.98
2017-08-12T22:44:29.122Z,15.99
2017-08-12T22:46:56.736Z,15.99
2017-08-12T22:49:24.418Z,15.97
2017-08-12T22:51:52.009Z,15.97
2017-08-12T22:54:19.705Z,15.93
2017-08-12T22:56:47.411Z,15.89
2017-08-12T22:59:15.111Z,15.85
2017-08-12T23:01:42.739Z,15.81
2017-08-12T23:04:10.325Z,15.81
2017-08-12T23:06:37.940Z,15.82
2017-08-12T23:09:05.514Z,15.83
2017-08-12T23:11:33.417Z,15.85
2017-08-12T23:14:01.002Z,15.84
2017-08-12T23:16:28.671Z,15.84
2017-08-12T23:18:56.397Z,15.84
2017-08-12T23:21:25.044Z,15.82
2017-08-12T23:23:52.655Z,15.83
2017-08-12T23:26:20.259Z,15.81
2017-08-12T23:28:47.868Z,15.82
2017-08-12T23:31:15.478Z,15.81
2017-08-12T23:33:43.450Z,15.79
2017-08-12T23:36:11.066Z,15.80
2017-08-12T23:38:38.650Z,15.81
2017-08-12T23:41:06.241Z,15.80
2017-08-12T23:43:33.839Z,15.81
2017-08-12T23:46:01.532Z,15.78
2017-08-12T23:48:29.185Z,15.73
2017-08-12T23:50:57.232Z,15.70
2017-08-12T23:53:24.834Z,15.68
2017-08-12T23:55:52.746Z,15.69
2017-08-12T23:58:20.324Z,15.68
